Time;durP1;ratioP1;P1;durP2;ratioP2;P2;SDS_P1;SDS_P2;PMS_P1;PMS_P2;Temp;Humidity;BMP_temperature;BMP_pressure;BME280_temperature;BME280_humidity;BME280_pressure;Samples;Min_cycle;Max_cycle;Signal;HPM_P1;HPM_P2
2023/10/14 00:01:29;;;;;;;3.85;2.80;;;21.80;52.00;;;;;;4985517;28;20049;-67
2023/10/14 00:03:56;;;;;;;5.40;2.85;;;21.80;52.20;;;;;;4985842;28;20042;-67
2023/10/14 00:06:22;;;;;;;7.40;2.78;;;21.80;52.20;;;;;;4986217;28;20529;-67
2023/10/14 00:08:52;;;;;;;5.07;2.70;;;21.80;52.20;;;;;;4984599;28;20128;-67
2023/10/14 00:11:18;;;;;;;4.68;2.50;;;21.80;52.20;;;;;;4982280;28;20529;-67
2023/10/14 00:13:55;;;;;;;5.07;2.47;;;21.90;52.30;;;;;;4985200;28;20095;-67
2023/10/14 00:19:03;;;;;;;10.93;2.80;;;21.90;52.40;;;;;;4985489;28;20117;-67
2023/10/14 00:21:28;;;;;;;6.53;3.15;;;21.90;52.40;;;;;;4985417;28;20062;-67
2023/10/14 00:23:57;;;;;;;5.03;2.80;;;21.90;52.40;;;;;;4985492;28;20040;-67
2023/10/14 00:26:26;;;;;;;5.28;2.65;;;21.80;52.50;;;;;;4985327;28;20038;-67
2023/10/14 00:28:54;;;;;;;5.38;2.83;;;21.90;52.70;;;;;;4985401;28;20030;-67
2023/10/14 00:31:24;;;;;;;3.92;2.67;;;21.90;52.80;;;;;;4984108;28;20068;-67
2023/10/14 00:33:52;;;;;;;5.90;2.92;;;21.90;52.80;;;;;;4985238;28;20038;-67
2023/10/14 00:36:20;;;;;;;5.65;2.83;;;21.80;52.80;;;;;;4986996;28;20042;-67
2023/10/14 00:38:45;;;;;;;3.72;2.70;;;21.90;52.90;;;;;;4988225;28;20034;-67
2023/10/14 00:41:12;;;;;;;7.47;2.92;;;21.90;53.00;;;;;;4988677;28;20402;-67
2023/10/14 00:43:41;;;;;;;6.30;2.85;;;21.80;53.00;;;;;;4987130;28;20030;-67
2023/10/14 00:46:12;;;;;;;4.97;2.95;;;21.80;53.10;;;;;;4989217;28;20138;-67
2023/10/14 00:48:40;;;;;;;5.47;2.80;;;21.80;53.20;;;;;;4988728;28;20030;-67
2023/10/14 00:51:07;;;;;;;4.82;2.58;;;21.70;53.30;;;;;;4988326;28;20066;-67
2023/10/14 00:53:37;;;;;;;6.55;2.65;;;21.70;53.30;;;;;;4988687;28;20034;-67
2023/10/14 00:56:03;;;;;;;5.63;3.10;;;21.60;53.40;;;;;;4988474;28;20070;-67
2023/10/14 00:58:28;;;;;;;4.38;2.60;;;21.60;53.60;;;;;;4989126;28;20136;-67
2023/10/14 01:00:57;;;;;;;6.47;3.15;;;21.60;53.70;;;;;;4987207;28;20538;-67
2023/10/14 01:03:27;;;;;;;4.88;3.08;;;21.50;53.80;;;;;;4987332;28;20108;-67
2023/10/14 01:05:56;;;;;;;5.57;2.90;;;21.50;54.00;;;;;;4988722;28;20161;-67
2023/10/14 01:08:26;;;;;;;5.07;3.05;;;21.50;54.10;;;;;;4988780;28;20049;-67
2023/10/14 01:10:52;;;;;;;5.55;3.05;;;21.40;54.20;;;;;;4987703;28;20077;-67
2023/10/14 01:13:22;;;;;;;5.35;2.95;;;21.40;54.30;;;;;;4987868;28;20061;-67
2023/10/14 01:15:51;;;;;;;6.43;3.03;;;21.40;54.40;;;;;;4988283;28;20350;-67
2023/10/14 01:18:17;;;;;;;7.32;3.10;;;21.30;54.50;;;;;;4987902;28;20030;-67
2023/10/14 01:20:43;;;;;;;5.65;3.00;;;21.30;54.60;;;;;;4988390;28;20039;-67
2023/10/14 01:23:12;;;;;;;4.40;2.95;;;21.30;54.80;;;;;;4988748;28;20034;-66
2023/10/14 01:25:47;;;;;;;5.90;3.05;;;21.30;54.90;;;;;;4988903;28;20038;-67
2023/10/14 01:28:15;;;;;;;;;;;21.20;55.00;;;;;;4989064;28;20022;-67
2023/10/14 01:33:57;;;;;;;6.25;2.75;;;21.20;55.80;;;;;;4988481;28;20052;-67
2023/10/14 01:36:27;;;;;;;7.93;3.20;;;21.20;54.90;;;;;;4989483;28;20567;-67
2023/10/14 01:38:59;;;;;;;4.50;2.97;;;21.20;55.10;;;;;;4989004;28;20046;-67
2023/10/14 01:41:29;;;;;;;6.97;3.40;;;21.20;55.30;;;;;;4989895;28;20048;-67
2023/10/14 01:43:57;;;;;;;4.40;2.75;;;21.20;55.50;;;;;;4986876;28;20038;-67
2023/10/14 01:46:27;;;;;;;4.22;3.03;;;21.10;55.50;;;;;;4988481;28;20038;-67
2023/10/14 01:48:54;;;;;;;4.13;3.10;;;21.20;55.60;;;;;;4987898;28;20342;-67
2023/10/14 01:51:20;;;;;;;3.60;2.90;;;21.20;55.60;;;;;;5001065;28;20072;-67
2023/10/14 01:53:46;;;;;;;7.80;3.30;;;21.20;55.60;;;;;;5002426;28;20038;-67
2023/10/14 01:56:12;;;;;;;4.35;3.10;;;21.20;55.60;;;;;;4990319;28;20042;-67
2023/10/14 01:58:40;;;;;;;3.60;2.88;;;21.20;55.60;;;;;;4989079;28;20485;-67
2023/10/14 02:03:48;;;;;;;4.07;3.00;;;21.30;55.70;;;;;;4989329;28;20057;-67
2023/10/14 02:06:20;;;;;;;5.18;3.00;;;21.30;55.80;;;;;;4988432;28;20518;-67
2023/10/14 02:08:47;;;;;;;8.93;2.88;;;21.30;55.50;;;;;;4987067;28;20076;-67
2023/10/14 02:11:16;;;;;;;6.53;2.97;;;21.30;55.60;;;;;;4986201;28;20506;-67
2023/10/14 02:13:41;;;;;;;6.60;3.42;;;21.30;55.60;;;;;;4987777;28;20038;-67
2023/10/14 02:16:07;;;;;;;7.05;3.20;;;21.30;55.60;;;;;;4987741;28;20037;-67
2023/10/14 02:18:36;;;;;;;6.10;2.95;;;21.40;56.10;;;;;;4987117;28;20041;-67
2023/10/14 02:21:08;;;;;;;5.13;2.95;;;21.40;55.60;;;;;;4988376;28;20425;-67
2023/10/14 02:23:44;;;;;;;3.78;3.10;;;21.40;55.70;;;;;;4987803;28;20064;-67
2023/10/14 02:26:24;;;;;;;4.95;3.17;;;21.40;55.70;;;;;;4987290;28;20058;-66
2023/10/14 02:28:54;;;;;;;5.93;2.97;;;21.40;56.50;;;;;;4987427;28;20391;-67
2023/10/14 02:33:53;;;;;;;6.88;3.05;;;21.50;56.00;;;;;;4986964;28;20046;-67
2023/10/14 02:36:19;;;;;;;6.28;3.28;;;21.40;56.00;;;;;;4988034;28;20049;-67
2023/10/14 02:38:53;;;;;;;5.68;3.33;;;21.40;56.00;;;;;;4988429;28;20117;-67
2023/10/14 02:41:19;;;;;;;4.57;2.70;;;21.40;56.00;;;;;;4987977;28;20042;-67
2023/10/14 02:43:48;;;;;;;3.10;2.80;;;21.40;56.10;;;;;;4985400;28;20030;-67
2023/10/14 02:46:20;;;;;;;11.55;3.22;;;21.40;56.20;;;;;;4988149;28;20188;-66
2023/10/14 02:48:55;;;;;;;3.50;3.10;;;21.40;56.30;;;;;;4987300;28;20565;-67
2023/10/14 02:51:41;;;;;;;5.70;3.30;;;21.40;56.30;;;;;;4987333;28;20038;-67
2023/10/14 02:59:19;;;;;;;7.53;3.05;;;21.40;56.40;;;;;;4986153;28;20378;-67
2023/10/14 03:02:10;;;;;;;4.10;2.95;;;21.30;56.60;;;;;;4987394;28;20042;-67
2023/10/14 03:04:39;;;;;;;6.72;3.03;;;21.30;56.90;;;;;;4987285;28;20042;-67
2023/10/14 03:07:07;;;;;;;4.33;3.20;;;21.30;56.90;;;;;;4985859;28;20042;-67
2023/10/14 03:09:34;;;;;;;5.82;3.05;;;21.30;57.00;;;;;;4987732;28;20045;-67
2023/10/14 03:12:00;;;;;;;4.82;2.85;;;21.30;57.00;;;;;;4984887;28;20044;-67
2023/10/14 03:14:27;;;;;;;6.07;3.17;;;21.30;57.30;;;;;;4986155;28;20514;-67
2023/10/14 03:16:52;;;;;;;5.18;3.22;;;21.20;57.30;;;;;;4986382;28;20038;-67
2023/10/14 03:19:18;;;;;;;7.70;3.40;;;21.20;57.30;;;;;;4986285;28;20038;-67
2023/10/14 03:21:58;;;;;;;6.20;3.33;;;21.10;57.50;;;;;;4986861;28;20592;-67
2023/10/14 03:24:25;;;;;;;5.22;3.05;;;21.10;57.40;;;;;;4986409;28;20119;-67
2023/10/14 03:26:57;;;;;;;3.10;2.80;;;21.10;57.50;;;;;;4987702;28;20517;-67
2023/10/14 03:29:25;;;;;;;4.88;3.15;;;21.10;57.70;;;;;;4987407;28;20683;-67
2023/10/14 03:31:52;;;;;;;3.45;2.83;;;21.10;57.50;;;;;;4988256;28;20046;-67
2023/10/14 03:34:18;;;;;;;4.60;3.00;;;21.10;57.60;;;;;;4986186;28;20537;-67
2023/10/14 03:36:43;;;;;;;5.22;3.30;;;21.10;57.60;;;;;;4985601;28;20298;-67
2023/10/14 03:39:28;;;;;;;4.75;3.05;;;21.00;57.70;;;;;;4987468;28;20439;-66
2023/10/14 03:41:54;;;;;;;4.15;2.90;;;21.00;57.90;;;;;;4987494;28;20057;-66
2023/10/14 03:44:23;;;;;;;4.85;3.05;;;21.10;58.00;;;;;;4986180;28;20030;-67
2023/10/14 03:46:59;;;;;;;4.65;2.85;;;21.00;58.10;;;;;;4987652;28;20121;-67
2023/10/14 03:49:25;;;;;;;4.80;2.58;;;21.00;58.30;;;;;;4987558;28;20022;-66
2023/10/14 03:51:56;;;;;;;3.75;3.03;;;20.90;58.40;;;;;;4986790;28;20534;-67
2023/10/14 03:54:31;;;;;;;6.35;2.63;;;20.90;58.80;;;;;;4985778;28;20038;-66
2023/10/14 03:57:03;;;;;;;9.50;2.77;;;21.00;58.80;;;;;;4985710;28;20376;-66
2023/10/14 03:59:33;;;;;;;6.68;2.80;;;20.90;59.10;;;;;;4986139;28;20823;-66
2023/10/14 04:02:01;;;;;;;5.30;3.00;;;20.90;59.20;;;;;;4985757;28;20043;-67
2023/10/14 04:04:29;;;;;;;4.53;2.90;;;20.90;59.30;;;;;;4985285;28;20449;-66
2023/10/14 04:09:36;;;;;;;3.40;2.65;;;20.90;59.70;;;;;;4985961;28;20104;-66
2023/10/14 04:12:07;;;;;;;4.25;2.92;;;20.90;59.70;;;;;;4988829;28;20042;-66
2023/10/14 04:14:35;;;;;;;6.35;2.83;;;20.90;59.90;;;;;;4989823;28;20042;-67
2023/10/14 04:19:44;;;;;;;5.53;3.13;;;20.90;60.50;;;;;;4991028;28;20035;-66
2023/10/14 04:22:38;;;;;;;4.53;3.10;;;20.80;60.70;;;;;;4989746;28;20583;-66
2023/10/14 04:25:18;;;;;;;5.28;2.95;;;20.80;61.50;;;;;;4989167;28;20027;-66
2023/10/14 04:30:31;;;;;;;5.17;3.37;;;20.70;61.50;;;;;;4989450;28;20113;-66
2023/10/14 04:35:31;;;;;;;6.07;3.50;;;20.70;62.00;;;;;;4989808;28;20334;-66
2023/10/14 04:37:58;;;;;;;5.90;3.30;;;20.60;62.20;;;;;;4990019;28;20041;-67
2023/10/14 04:43:19;;;;;;;6.35;3.28;;;20.60;63.10;;;;;;4987230;28;20035;-66
2023/10/14 04:45:45;;;;;;;;;;;20.60;64.00;;;;;;4990302;28;20034;-66
2023/10/14 04:48:14;;;;;;;5.90;2.78;;;20.60;62.70;;;;;;4989746;28;19913;-66
2023/10/14 04:50:39;;;;;;;6.25;3.60;;;20.60;62.90;;;;;;4989196;28;20427;-66
2023/10/14 04:53:06;;;;;;;4.53;3.33;;;20.50;63.40;;;;;;4989675;28;20054;-66
2023/10/14 04:55:36;;;;;;;9.25;3.88;;;20.50;64.30;;;;;;4989524;28;20136;-66
2023/10/14 05:00:42;;;;;;;8.63;3.25;;;20.40;65.60;;;;;;4989407;28;20066;-66
2023/10/14 05:03:18;;;;;;;5.70;3.40;;;20.40;65.20;;;;;;4989627;28;20038;-66
2023/10/14 05:06:03;;;;;;;6.88;3.35;;;20.30;65.50;;;;;;4989935;28;20513;-66
2023/10/14 05:08:44;;;;;;;;;;;20.30;65.90;;;;;;4989654;28;20449;-66
2023/10/14 05:11:13;;;;;;;6.07;3.22;;;20.30;65.90;;;;;;4988019;28;20345;-66
2023/10/14 05:13:42;;;;;;;4.65;3.45;;;20.20;65.20;;;;;;4988588;28;20118;-66
2023/10/14 05:16:15;;;;;;;5.78;3.25;;;20.20;66.00;;;;;;4989040;28;20037;-66
2023/10/14 05:18:43;;;;;;;7.40;3.47;;;20.20;66.80;;;;;;4988485;28;20034;-66
2023/10/14 05:21:35;;;;;;;5.25;3.63;;;20.20;67.00;;;;;;4988139;28;20046;-66
2023/10/14 05:24:02;;;;;;;4.72;3.42;;;20.20;67.20;;;;;;4988494;28;20120;-66
2023/10/14 05:26:27;;;;;;;4.57;3.53;;;20.10;67.10;;;;;;4987818;28;20522;-66
2023/10/14 05:28:54;;;;;;;6.63;3.63;;;20.10;68.30;;;;;;4990020;28;20121;-66
2023/10/14 05:31:20;;;;;;;4.95;3.38;;;20.00;68.00;;;;;;4989814;28;20081;-66
2023/10/14 05:33:48;;;;;;;5.82;3.70;;;20.10;68.10;;;;;;4988310;28;20073;-66
2023/10/14 05:36:14;;;;;;;8.38;3.38;;;20.00;68.40;;;;;;4989634;28;20390;-66
2023/10/14 05:38:41;;;;;;;10.40;3.95;;;20.00;68.60;;;;;;4987816;28;20041;-66
2023/10/14 05:41:11;;;;;;;6.13;3.80;;;20.00;68.70;;;;;;4988575;28;20049;-66
2023/10/14 05:43:37;;;;;;;7.78;3.60;;;19.90;69.10;;;;;;4987102;28;20039;-66
2023/10/14 05:46:12;;;;;;;9.77;4.00;;;19.90;69.30;;;;;;4988471;28;20096;-66
2023/10/14 05:48:37;;;;;;;3.92;3.40;;;19.90;70.00;;;;;;4988961;28;20038;-66
2023/10/14 05:51:04;;;;;;;7.80;3.67;;;19.90;69.70;;;;;;4988062;28;20022;-66
2023/10/14 05:53:31;;;;;;;8.10;3.90;;;19.80;69.50;;;;;;4987445;28;20034;-66
2023/10/14 05:56:09;;;;;;;7.22;3.67;;;19.80;70.90;;;;;;4988201;28;20418;-66
2023/10/14 05:58:38;;;;;;;9.40;4.15;;;19.80;70.70;;;;;;4987160;28;20054;-66
2023/10/14 06:01:10;;;;;;;8.13;3.60;;;19.70;70.80;;;;;;4975748;28;20050;-66
2023/10/14 06:03:43;;;;;;;4.57;3.50;;;19.70;71.60;;;;;;4980566;28;20038;-68
2023/10/14 06:06:15;;;;;;;7.00;3.67;;;19.70;71.30;;;;;;4980648;28;20042;-66
2023/10/14 06:08:46;;;;;;;6.43;3.50;;;19.60;70.80;;;;;;4983152;28;20053;-66
2023/10/14 06:11:12;;;;;;;6.05;3.53;;;19.60;70.90;;;;;;4984084;28;20045;-66
2023/10/14 06:13:38;;;;;;;6.18;3.72;;;19.60;70.90;;;;;;4971990;28;20070;-66
2023/10/14 06:16:09;;;;;;;6.05;3.38;;;19.60;71.20;;;;;;4983423;28;20125;-66
2023/10/14 06:18:38;;;;;;;7.80;3.40;;;19.60;71.30;;;;;;4985405;28;20035;-66
2023/10/14 06:21:06;;;;;;;5.68;3.28;;;19.60;71.10;;;;;;4990170;28;20042;-66
2023/10/14 06:23:32;;;;;;;7.32;3.63;;;19.60;71.30;;;;;;4980601;28;20133;-66
2023/10/14 06:25:58;;;;;;;5.13;3.10;;;19.50;71.30;;;;;;4984028;28;20051;-65
2023/10/14 06:28:24;;;;;;;6.28;2.92;;;19.50;71.40;;;;;;4984779;28;20073;-66
2023/10/14 06:30:49;;;;;;;4.88;2.97;;;19.50;71.40;;;;;;4984279;28;20058;-66
2023/10/14 06:33:15;;;;;;;5.97;3.20;;;19.50;71.30;;;;;;4982907;28;20045;-66
2023/10/14 06:35:44;;;;;;;6.25;3.15;;;19.50;71.40;;;;;;4984705;28;20037;-66
2023/10/14 06:38:23;;;;;;;4.50;2.95;;;19.60;71.60;;;;;;4983528;28;20157;-66
2023/10/14 06:40:55;;;;;;;6.85;3.03;;;19.60;72.00;;;;;;4981224;28;20480;-66
2023/10/14 06:43:22;;;;;;;5.25;3.03;;;19.60;71.70;;;;;;4980373;28;20022;-65
2023/10/14 06:45:51;;;;;;;5.78;3.42;;;19.60;71.40;;;;;;4978077;28;20046;-65
2023/10/14 06:48:17;;;;;;;4.68;2.85;;;19.60;71.50;;;;;;4980121;28;20109;-66
2023/10/14 06:50:47;;;;;;;5.20;3.10;;;19.60;71.50;;;;;;4984150;28;20047;-66
2023/10/14 06:53:18;;;;;;;4.80;3.00;;;19.60;71.60;;;;;;4979865;28;20042;-66
2023/10/14 06:55:50;;;;;;;4.70;3.00;;;19.60;71.80;;;;;;5039507;28;20459;-65
2023/10/14 06:58:27;;;;;;;5.90;3.70;;;19.70;72.00;;;;;;5025726;28;20824;-65
2023/10/14 07:00:53;;;;;;;4.85;3.50;;;19.60;71.80;;;;;;5016525;28;20142;-66
2023/10/14 07:03:18;;;;;;;7.78;3.63;;;19.60;71.80;;;;;;5022111;28;20481;-65
2023/10/14 07:08:21;;;;;;;4.82;3.20;;;19.60;71.80;;;;;;5025243;28;20030;-66
2023/10/14 07:10:50;;;;;;;6.15;3.90;;;19.70;71.60;;;;;;5015864;28;20047;-66
2023/10/14 07:13:22;;;;;;;4.63;3.10;;;19.60;71.80;;;;;;5023858;28;20515;-65
2023/10/14 07:15:48;;;;;;;6.30;3.40;;;19.70;71.80;;;;;;5026604;28;20065;-66
2023/10/14 07:18:18;;;;;;;6.00;3.38;;;19.60;72.00;;;;;;5021382;28;20041;-66
2023/10/14 07:20:45;;;;;;;5.63;3.60;;;19.60;72.00;;;;;;5021273;28;20037;-66
2023/10/14 07:23:11;;;;;;;7.07;3.70;;;19.70;72.00;;;;;;5025173;28;20049;-66
2023/10/14 07:25:42;;;;;;;6.85;3.47;;;19.70;72.50;;;;;;5023381;28;20120;-66
2023/10/14 07:28:13;;;;;;;7.07;3.80;;;19.60;72.30;;;;;;5024180;28;20492;-65
2023/10/14 07:30:46;;;;;;;6.68;3.45;;;19.70;72.30;;;;;;5029662;28;20079;-65
2023/10/14 07:33:12;;;;;;;8.57;3.60;;;19.70;72.10;;;;;;5026323;28;20037;-65
2023/10/14 07:35:40;;;;;;;5.28;3.30;;;19.60;72.20;;;;;;5024827;28;20146;-65
2023/10/14 07:38:06;;;;;;;6.18;3.53;;;19.60;72.30;;;;;;5026840;28;20568;-66
2023/10/14 07:40:34;;;;;;;7.18;3.67;;;19.60;72.40;;;;;;5026168;28;20129;-66
2023/10/14 07:43:34;;;;;;;6.20;3.40;;;19.70;72.30;;;;;;5025217;28;20037;-66
2023/10/14 07:45:53;;;;;;;5.47;3.63;;;19.70;72.30;;;;;;5025697;28;20081;-66
2023/10/14 07:48:20;;;;;;;6.15;3.40;;;19.70;72.40;;;;;;5024935;28;20029;-66
2023/10/14 07:50:47;;;;;;;7.28;3.53;;;19.70;72.20;;;;;;5026121;28;20029;-65
2023/10/14 07:53:15;;;;;;;8.18;3.33;;;19.70;72.40;;;;;;5026275;28;20041;-66
2023/10/14 07:55:47;;;;;;;13.63;3.80;;;19.70;72.30;;;;;;5026539;28;20049;-65
2023/10/14 07:58:13;;;;;;;6.90;3.45;;;19.90;72.50;;;;;;5025671;28;20040;-66
2023/10/14 08:00:41;;;;;;;6.95;3.63;;;19.80;72.20;;;;;;5027685;28;20088;-66
2023/10/14 08:03:09;;;;;;;4.80;3.20;;;19.80;72.10;;;;;;5024284;28;20038;-66
2023/10/14 08:05:38;;;;;;;5.32;3.30;;;19.90;72.00;;;;;;5022885;28;20055;-66
2023/10/14 08:08:09;;;;;;;5.90;3.42;;;19.80;72.00;;;;;;5013588;28;20037;-66
2023/10/14 08:10:36;;;;;;;8.32;3.33;;;19.90;72.30;;;;;;5011531;28;20038;-66
2023/10/14 08:13:04;;;;;;;10.38;3.42;;;19.90;72.00;;;;;;5011724;28;20561;-66
2023/10/14 08:15:31;;;;;;;9.52;3.45;;;19.90;71.90;;;;;;5009059;28;20053;-66
2023/10/14 08:18:00;;;;;;;5.38;3.10;;;19.90;71.80;;;;;;5011608;28;20057;-66
2023/10/14 08:20:28;;;;;;;17.77;3.92;;;19.90;71.70;;;;;;5014386;28;20514;-66
2023/10/14 08:22:55;;;;;;;6.97;3.58;;;19.90;71.60;;;;;;5014934;28;20399;-66
2023/10/14 08:25:24;;;;;;;7.80;3.33;;;19.90;71.70;;;;;;5013967;28;20104;-66
2023/10/14 08:27:50;;;;;;;6.82;3.30;;;20.00;71.70;;;;;;5012775;28;20041;-66
2023/10/14 08:30:16;;;;;;;5.05;3.50;;;20.00;72.50;;;;;;5013704;28;20124;-66
2023/10/14 08:32:43;;;;;;;7.30;3.47;;;20.00;71.40;;;;;;5010416;28;20096;-66
2023/10/14 08:35:17;;;;;;;7.85;3.53;;;20.00;71.30;;;;;;5003496;28;20072;-65
2023/10/14 08:37:51;;;;;;;7.93;3.50;;;20.00;71.40;;;;;;5012194;28;20569;-66
2023/10/14 08:40:22;;;;;;;5.88;3.03;;;20.10;71.40;;;;;;5012729;28;20099;-66
2023/10/14 08:42:50;;;;;;;6.30;3.60;;;20.00;71.10;;;;;;5005412;28;20440;-65
2023/10/14 08:45:21;;;;;;;6.00;3.35;;;20.10;71.10;;;;;;5014663;28;20095;-66
2023/10/14 08:47:51;;;;;;;8.15;3.47;;;20.10;71.20;;;;;;5012713;28;20061;-66
2023/10/14 08:50:21;;;;;;;8.23;3.70;;;20.20;71.10;;;;;;5010478;28;20046;-66
2023/10/14 08:52:49;;;;;;;7.53;3.70;;;20.20;71.30;;;;;;5011438;28;20121;-66
2023/10/14 08:55:16;;;;;;;8.70;3.88;;;20.30;71.10;;;;;;5013492;28;20145;-66
2023/10/14 08:57:45;;;;;;;6.45;3.40;;;20.40;70.90;;;;;;5011805;28;20046;-66
2023/10/14 09:00:22;;;;;;;7.28;3.28;;;20.40;70.70;;;;;;5012100;28;20042;-66
2023/10/14 09:02:49;;;;;;;8.73;3.60;;;20.50;70.80;;;;;;5006439;28;20033;-66
2023/10/14 09:05:16;;;;;;;7.90;3.58;;;20.50;70.40;;;;;;5012870;28;20095;-66
2023/10/14 09:07:44;;;;;;;5.88;3.40;;;20.60;70.20;;;;;;5011640;28;20136;-66
2023/10/14 09:10:10;;;;;;;7.95;3.55;;;20.60;70.00;;;;;;5012889;28;20042;-66
2023/10/14 09:12:36;;;;;;;4.97;3.40;;;20.70;70.00;;;;;;5009717;28;20329;-66
2023/10/14 09:15:02;;;;;;;5.18;3.20;;;20.70;70.00;;;;;;5009736;28;20499;-66
2023/10/14 09:17:28;;;;;;;6.63;3.45;;;20.80;69.80;;;;;;5010523;28;20030;-66
2023/10/14 09:19:54;;;;;;;6.32;3.50;;;20.90;69.40;;;;;;5012761;28;20164;-65
2023/10/14 09:22:35;;;;;;;8.32;3.30;;;21.00;69.10;;;;;;5010429;28;20037;-66
2023/10/14 09:25:03;;;;;;;5.28;3.15;;;21.00;69.10;;;;;;5010105;28;20065;-66
2023/10/14 09:27:32;;;;;;;6.45;3.03;;;21.00;68.90;;;;;;5009840;28;20037;-66
2023/10/14 09:29:58;;;;;;;10.32;3.60;;;21.00;69.00;;;;;;5014914;28;20513;-66
2023/10/14 09:32:24;;;;;;;5.78;3.22;;;21.10;68.50;;;;;;5013041;28;20037;-66
2023/10/14 09:34:51;;;;;;;6.82;3.10;;;21.10;68.20;;;;;;5013890;28;20034;-66
2023/10/14 09:37:17;;;;;;;9.00;3.20;;;21.10;68.10;;;;;;5013750;28;20038;-66
2023/10/14 09:39:48;;;;;;;7.85;3.10;;;21.20;67.90;;;;;;5015187;28;20052;-66
2023/10/14 09:42:15;;;;;;;3.67;2.80;;;21.20;67.90;;;;;;5013858;28;20145;-67
2023/10/14 09:44:42;;;;;;;5.85;2.80;;;21.20;67.80;;;;;;5015412;28;20068;-66
2023/10/14 09:47:12;;;;;;;5.40;2.80;;;21.10;67.60;;;;;;5015731;28;20068;-67
2023/10/14 09:49:38;;;;;;;4.20;2.50;;;21.20;67.60;;;;;;5012963;28;20599;-66
2023/10/14 09:52:06;;;;;;;6.90;2.78;;;21.10;67.60;;;;;;5016456;28;20075;-66
2023/10/14 09:54:34;;;;;;;4.70;2.60;;;21.10;67.70;;;;;;5014500;28;20045;-66
2023/10/14 09:57:00;;;;;;;5.20;2.90;;;21.10;67.80;;;;;;5011278;28;20063;-66
2023/10/14 09:59:30;;;;;;;7.43;2.83;;;21.00;68.00;;;;;;5017873;28;20076;-66
2023/10/14 10:01:55;;;;;;;5.93;2.92;;;21.00;68.20;;;;;;5017910;28;20030;-66
2023/10/14 10:04:30;;;;;;;7.65;3.17;;;20.90;68.30;;;;;;5017142;28;20037;-66
2023/10/14 10:07:16;;;;;;;;;;;20.80;69.20;;;;;;5017804;28;20038;-66
2023/10/14 10:09:54;;;;;;;10.05;3.10;;;20.80;69.90;;;;;;5017822;28;19910;-66
2023/10/14 10:12:22;;;;;;;5.90;2.92;;;20.70;69.80;;;;;;5014965;28;20040;-66
2023/10/14 10:14:57;;;;;;;6.05;3.47;;;20.50;70.70;;;;;;5016363;28;20133;-66
2023/10/14 10:17:24;;;;;;;5.82;3.22;;;20.40;71.80;;;;;;5015698;28;20457;-66
2023/10/14 10:20:11;;;;;;;7.45;3.47;;;20.30;71.50;;;;;;5016194;28;20491;-66
2023/10/14 10:22:44;;;;;;;6.97;2.80;;;20.20;73.40;;;;;;5015843;28;20030;-66
2023/10/14 10:25:14;;;;;;;5.40;2.97;;;20.00;72.70;;;;;;5015188;28;20079;-66
2023/10/14 10:27:40;;;;;;;4.85;2.95;;;19.90;73.20;;;;;;5016319;28;20131;-66
2023/10/14 10:30:08;;;;;;;6.38;2.92;;;19.80;74.30;;;;;;5015284;28;20030;-66
2023/10/14 10:32:33;;;;;;;5.38;2.90;;;19.70;74.70;;;;;;5015575;28;20041;-66
2023/10/14 10:35:05;;;;;;;5.32;2.70;;;19.70;74.90;;;;;;5016022;28;20044;-66
2023/10/14 10:37:34;;;;;;;3.95;2.60;;;19.60;76.00;;;;;;5015081;28;20026;-65
2023/10/14 10:40:05;;;;;;;6.97;2.90;;;19.50;76.20;;;;;;5023163;28;20045;-65
2023/10/14 10:42:31;;;;;;;4.95;3.20;;;19.50;76.50;;;;;;5014764;28;20510;-66
2023/10/14 10:45:00;;;;;;;3.85;3.05;;;19.40;77.00;;;;;;5015107;28;20030;-66
2023/10/14 10:47:29;;;;;;;8.50;3.28;;;19.40;77.20;;;;;;5015714;28;20117;-66
2023/10/14 10:50:00;;;;;;;5.65;3.35;;;19.50;77.90;;;;;;5014285;28;20117;-65
2023/10/14 10:52:26;;;;;;;6.45;3.38;;;19.40;78.00;;;;;;5014986;28;20033;-66
2023/10/14 10:54:53;;;;;;;6.95;3.65;;;19.50;78.00;;;;;;5012261;28;20038;-66
2023/10/14 10:57:19;;;;;;;7.35;3.40;;;19.50;78.40;;;;;;5011137;28;20272;-65
2023/10/14 10:59:46;;;;;;;6.10;3.28;;;19.50;78.70;;;;;;5011462;28;20041;-66
2023/10/14 11:02:13;;;;;;;6.07;3.58;;;19.50;78.80;;;;;;5012392;28;20045;-66
2023/10/14 11:04:41;;;;;;;6.78;3.47;;;19.60;79.10;;;;;;5014075;28;20034;-64
2023/10/14 11:07:08;;;;;;;5.50;3.38;;;19.60;79.30;;;;;;5014021;28;20267;-65
2023/10/14 11:09:39;;;;;;;6.50;3.33;;;19.60;79.40;;;;;;5014006;28;20034;-65
2023/10/14 11:12:09;;;;;;;6.55;3.17;;;19.60;79.30;;;;;;5011345;28;20379;-64
2023/10/14 11:14:35;;;;;;;7.00;3.05;;;19.70;79.20;;;;;;5012938;28;20049;-65
2023/10/14 11:17:01;;;;;;;4.65;3.00;;;19.70;78.90;;;;;;5011788;28;20041;-64
2023/10/14 11:19:30;;;;;;;4.93;2.88;;;19.70;78.60;;;;;;5013070;28;20041;-65
2023/10/14 11:21:59;;;;;;;3.20;2.13;;;19.60;78.90;;;;;;5014357;28;20512;-65
2023/10/14 11:24:30;;;;;;;3.15;2.00;;;19.60;78.70;;;;;;5012495;28;20038;-66
2023/10/14 11:26:57;;;;;;;2.00;1.45;;;19.60;78.60;;;;;;5014373;28;20034;-65
2023/10/14 11:29:27;;;;;;;1.70;1.08;;;19.50;78.50;;;;;;5012027;28;20037;-64
2023/10/14 11:31:59;;;;;;;1.23;1.13;;;19.40;78.00;;;;;;5013520;28;20033;-64
2023/10/14 11:34:25;;;;;;;1.65;1.20;;;19.40;78.10;;;;;;5011510;28;20045;-64
2023/10/14 11:36:50;;;;;;;2.30;1.17;;;19.40;78.70;;;;;;5013288;28;20037;-63
2023/10/14 11:39:18;;;;;;;2.88;1.20;;;19.30;79.10;;;;;;5011910;28;20065;-63
2023/10/14 11:41:45;;;;;;;2.35;1.35;;;19.30;79.90;;;;;;5015649;28;20033;-62
2023/10/14 11:44:11;;;;;;;6.80;1.80;;;19.30;80.80;;;;;;5016987;28;20029;-64
2023/10/14 11:46:40;;;;;;;2.38;1.80;;;19.30;80.10;;;;;;5016793;28;20068;-62
2023/10/14 11:49:12;;;;;;;3.05;2.15;;;19.40;80.60;;;;;;5016835;28;20121;-63
2023/10/14 11:51:42;;;;;;;3.50;1.98;;;19.40;81.50;;;;;;5015408;28;21023;-63
2023/10/14 11:54:11;;;;;;;3.15;2.28;;;19.50;81.50;;;;;;5016577;28;20044;-63
2023/10/14 11:56:41;;;;;;;2.85;2.50;;;19.50;81.60;;;;;;5017153;28;20030;-65
2023/10/14 11:59:12;;;;;;;3.30;2.38;;;19.60;81.50;;;;;;5015801;28;20038;-64
2023/10/14 12:01:38;;;;;;;4.13;2.85;;;19.60;81.40;;;;;;5017024;28;20433;-64
2023/10/14 12:04:05;;;;;;;4.75;2.53;;;19.70;81.80;;;;;;5017095;28;20048;-65
2023/10/14 12:06:34;;;;;;;3.42;2.70;;;19.80;82.00;;;;;;5015149;28;20573;-63
2023/10/14 12:09:05;;;;;;;3.45;2.58;;;19.90;82.00;;;;;;5016357;28;20038;-64
2023/10/14 12:11:39;;;;;;;4.68;2.40;;;19.90;81.90;;;;;;5016456;28;20506;-65
2023/10/14 12:14:07;;;;;;;2.70;1.98;;;20.00;81.50;;;;;;5015403;28;20157;-66
2023/10/14 12:16:33;;;;;;;2.38;1.70;;;20.10;81.30;;;;;;5015860;28;20026;-65
2023/10/14 12:18:59;;;;;;;3.35;2.20;;;20.20;81.10;;;;;;5017324;28;20127;-64
2023/10/14 12:21:24;;;;;;;3.55;2.00;;;20.30;81.00;;;;;;5015931;28;20038;-65
2023/10/14 12:23:51;;;;;;;3.25;1.83;;;20.40;80.50;;;;;;5017405;28;20303;-67
2023/10/14 12:26:17;;;;;;;3.28;1.80;;;20.50;79.70;;;;;;5016129;28;20112;-64
2023/10/14 12:28:43;;;;;;;2.67;1.77;;;20.50;78.80;;;;;;5015783;28;20128;-67
2023/10/14 12:31:12;;;;;;;3.45;1.88;;;20.60;78.60;;;;;;5016459;28;20053;-65
2023/10/14 12:33:38;;;;;;;3.40;2.10;;;20.60;78.30;;;;;;5014572;28;20030;-65
2023/10/14 12:36:17;;;;;;;4.57;1.95;;;20.70;78.70;;;;;;5013907;28;20104;-65
2023/10/14 12:38:43;;;;;;;2.38;1.75;;;20.70;78.80;;;;;;5014855;28;20524;-65
2023/10/14 12:41:21;;;;;;;5.47;1.90;;;20.80;78.50;;;;;;5016094;28;20053;-65
2023/10/14 12:43:50;;;;;;;4.45;1.35;;;20.80;78.30;;;;;;5015637;28;20034;-65
2023/10/14 12:48:45;;;;;;;0.30;0.22;;;20.90;71.60;;;;;;5017194;28;20045;-65
2023/10/14 12:51:17;;;;;;;0.85;0.15;;;20.80;70.20;;;;;;5014733;28;20061;-64
2023/10/14 12:53:47;;;;;;;0.45;0.22;;;20.60;70.40;;;;;;5015024;28;20643;-65
2023/10/14 12:56:15;;;;;;;0.75;0.10;;;20.40;70.70;;;;;;5014281;28;20030;-65
2023/10/14 12:58:45;;;;;;;0.90;0.10;;;20.20;70.90;;;;;;5016892;28;20066;-65
2023/10/14 13:01:17;;;;;;;0.25;0.10;;;20.00;71.40;;;;;;5015703;28;20889;-65
2023/10/14 13:03:53;;;;;;;0.50;0.25;;;19.90;71.80;;;;;;5015406;28;20088;-64
2023/10/14 13:06:24;;;;;;;0.15;0.10;;;19.70;72.10;;;;;;5016263;28;20295;-64
2023/10/14 13:08:51;;;;;;;1.88;0.40;;;19.60;72.60;;;;;;5016427;28;20037;-66
2023/10/14 13:11:17;;;;;;;4.03;0.80;;;19.50;73.70;;;;;;5015025;28;20052;-66
2023/10/14 13:13:50;;;;;;;2.38;0.68;;;19.30;74.60;;;;;;5015965;28;20125;-66
2023/10/14 13:16:18;;;;;;;1.75;0.38;;;19.20;75.20;;;;;;5014480;28;20030;-65
2023/10/14 13:18:50;;;;;;;0.90;0.60;;;18.90;75.50;;;;;;5016949;28;20034;-65
2023/10/14 13:21:19;;;;;;;2.60;0.55;;;18.70;76.50;;;;;;5015664;28;20571;-65
2023/10/14 13:23:49;;;;;;;3.45;0.73;;;18.40;77.50;;;;;;5016879;28;20568;-65
2023/10/14 13:26:15;;;;;;;3.72;0.52;;;18.20;78.60;;;;;;5007185;28;20153;-65
2023/10/14 13:28:45;;;;;;;1.52;0.45;;;18.00;79.10;;;;;;5007896;28;20532;-65
2023/10/14 13:31:15;;;;;;;1.42;0.20;;;17.80;80.20;;;;;;5006518;28;20049;-64
2023/10/14 13:33:41;;;;;;;0.65;0.20;;;17.60;81.00;;;;;;5009163;22;20034;-64
2023/10/14 13:36:10;;;;;;;1.35;0.30;;;17.50;81.00;;;;;;4988105;28;20037;-65